ADDS METAR Data INFO
IDs: Format: Raw Decoded Include TAF

Data at: 0803 UTC 23 Jul 2018

KFRM 230756Z AUTO 31004KT 6SM BR CLR 18/18 A3007 RMK AO2 SLP180 T01830178
KFRM 230656Z AUTO 00000KT 10SM CLR 18/17 A3007 RMK AO2 SLP182 T01830172
KFRM 230556Z AUTO 28003KT 10SM CLR 18/17 A3007 RMK AO2 SLP182 T01830172 10250 20178 402560161 50003
KFRM 230456Z AUTO 00000KT 10SM CLR 19/17 A3008 RMK AO2 SLP183 T01940172
KFRM 230356Z AUTO 00000KT 10SM CLR 20/18 A3008 RMK AO2 SLP185 T02000178
KFRM 230256Z AUTO 07003KT 10SM CLR 21/18 A3007 RMK AO2 SLP180 T02060183 53008
KFRM 230056Z AUTO 06004KT 10SM CLR 23/19 A3004 RMK AO2 SLP171 T02330194
KFRM 222356Z AUTO 03006KT 10SM CLR 25/19 A3004 RMK AO2 SLP171 T02500189 10256 20233 58006
KFRM 222256Z AUTO 02004KT 10SM CLR 26/19 A3005 RMK AO2 SLP174 T02560189
KFRM 222156Z AUTO VRB05KT 10SM CLR 25/19 A3006 RMK AO2 SLP178 T02500189
KFRM 222056Z AUTO 03006KT 10SM CLR 25/18 A3006 RMK AO2 SLP177 T02500183 58007
KFRM 221956Z AUTO 00000KT 10SM CLR 24/18 A3007 RMK AO2 SLP181 T02440183
KFRM 221856Z AUTO 05004KT 10SM CLR 24/18 A3008 RMK AO2 SLP183 T02390183
KFRM 221756Z AUTO 02005KT 10SM CLR 23/18 A3008 RMK AO2 SLP184 T02330183 10233 20178 55000
KFRM 221556Z AUTO 04006KT 10SM CLR 22/18 A3007 RMK AO2 SLP180 T02170178
KFRM 221456Z AUTO 07007KT 10SM CLR 21/17 A3008 RMK AO2 SLP185 T02060172 55005
KFRM 221356Z AUTO 05007KT 10SM CLR 19/17 A3008 RMK AO2 SLP184 T01940172
KFRM 221256Z AUTO 05007KT 10SM CLR 18/17 A3009 RMK AO2 SLP189 T01830167
KFRM 221156Z AUTO 04006KT 9SM CLR 18/17 A3009 RMK AO2 SLP189 T01780167 10194 20161 53007
KFRM 221056Z AUTO 03004KT 10SM CLR 17/16 A3008 RMK AO2 SLP186 T01670161
KFRM 220956Z AUTO 36005KT 9SM CLR 16/16 A3008 RMK AO2 SLP184 T01610156
KFRM 220856Z AUTO 35004KT 7SM CLR 17/16 A3007 RMK AO2 SLP182 T01670161 56007
KFRM 220756Z AUTO 01005KT 10SM CLR 18/17 A3008 RMK AO2 SLP182 T01780167
KFRM 220656Z AUTO 01007KT 10SM CLR 19/17 A3008 RMK AO2 SLP182 T01940172
KFRM 220556Z AUTO 34005KT 10SM CLR 19/18 A3009 RMK AO2 SLP189 T01890178 10244 20189 402560172 53005
KFRM 220456Z AUTO 34006KT 10SM CLR 19/18 A3008 RMK AO2 SLP184 T01890178
KFRM 220356Z AUTO 34004KT 10SM CLR 20/18 A3008 RMK AO2 SLP184 T02000178
KFRM 220256Z AUTO 35005KT 10SM CLR 21/18 A3008 RMK AO2 SLP184 T02060183 53013
KFRM 220156Z AUTO 35004KT 10SM CLR 22/18 A3005 RMK AO2 SLP176 T02170183
KFRM 220056Z AUTO 01006KT 10SM CLR 24/18 A3005 RMK AO2 SLP172 T02390178
KFRM 212356Z AUTO 02007KT 10SM CLR 24/18 A3004 RMK AO2 SLP171 T02440178 10256 20233 57002
KFRM 212256Z AUTO 36009KT 10SM FEW037 25/18 A3004 RMK AO2 SLP170 T02500178
KFRM 212156Z AUTO 02009KT 10SM CLR 25/18 A3005 RMK AO2 SLP173 T02500183
KFRM 212056Z AUTO 36012KT 10SM SCT034 25/18 A3005 RMK AO2 SLP172 T02500183 57000